createdAt,value
2019-03-04T00:00:48.771Z,1.97
2019-03-04T00:03:18.078Z,1.20
2019-03-04T00:05:47.365Z,1.20
2019-03-04T00:08:16.644Z,1.40
2019-03-04T00:10:45.913Z,1.60
2019-03-04T00:13:15.262Z,1.47
2019-03-04T00:15:44.520Z,1.23
2019-03-04T00:18:13.850Z,1.53
2019-03-04T00:20:43.103Z,1.60
2019-03-04T00:23:12.399Z,1.57
2019-03-04T00:25:41.670Z,0.97
2019-03-04T00:28:11.451Z,0.80
2019-03-04T00:30:40.724Z,1.17
2019-03-04T00:33:10.066Z,1.00
2019-03-04T00:35:39.292Z,1.30
2019-03-04T00:38:08.847Z,1.20
2019-03-04T00:40:38.142Z,1.90
2019-03-04T00:43:07.398Z,1.00
2019-03-04T00:45:36.664Z,1.20
2019-03-04T00:48:06.040Z,1.20
2019-03-04T00:50:35.315Z,1.43
2019-03-04T00:53:04.601Z,1.37
2019-03-04T00:55:33.863Z,1.40
2019-03-04T00:58:03.150Z,1.00
2019-03-04T01:00:32.431Z,1.30
2019-03-04T01:03:01.695Z,1.30
2019-03-04T01:05:31.561Z,1.20
2019-03-04T01:08:00.927Z,1.30
2019-03-04T01:10:30.227Z,1.30
2019-03-04T01:12:59.586Z,1.57
2019-03-04T01:15:28.891Z,1.77
2019-03-04T01:17:58.173Z,1.30
2019-03-04T01:20:27.473Z,1.67
2019-03-04T01:22:56.764Z,2.43
2019-03-04T01:25:26.105Z,1.27
2019-03-04T01:27:55.360Z,1.20
2019-03-04T01:30:24.815Z,1.70
2019-03-04T01:32:54.229Z,1.40
2019-03-04T01:35:23.671Z,1.60
2019-03-04T01:37:53.322Z,1.43
2019-03-04T01:40:22.883Z,1.60
2019-03-04T01:42:53.047Z,1.47
2019-03-04T01:45:22.351Z,1.60
2019-03-04T01:47:51.750Z,1.67
2019-03-04T01:50:23.642Z,1.27
2019-03-04T01:52:53.532Z,1.80
2019-03-04T01:55:22.811Z,1.80
2019-03-04T01:57:52.089Z,2.10
2019-03-04T02:00:21.532Z,1.80
2019-03-04T02:02:50.859Z,2.00
2019-03-04T02:05:20.513Z,1.47
2019-03-04T02:07:49.775Z,1.60
2019-03-04T02:10:19.455Z,1.90
2019-03-04T02:12:49.020Z,1.27
2019-03-04T02:15:19.204Z,1.20
2019-03-04T02:17:48.611Z,1.40
2019-03-04T02:20:18.917Z,1.50
2019-03-04T02:22:50.146Z,1.13
2019-03-04T02:25:21.380Z,1.10
2019-03-04T02:27:54.417Z,1.40
2019-03-04T02:30:26.265Z,1.27
2019-03-04T02:32:55.567Z,1.33
2019-03-04T02:35:24.841Z,1.27
2019-03-04T02:37:54.119Z,1.30
2019-03-04T02:40:29.279Z,1.00
2019-03-04T02:42:58.658Z,1.20
2019-03-04T02:45:27.921Z,1.07
2019-03-04T02:47:57.192Z,1.30
2019-03-04T02:50:26.440Z,1.30
2019-03-04T02:52:55.721Z,1.37
2019-03-04T02:55:24.989Z,1.30
2019-03-04T02:57:54.289Z,1.40
2019-03-04T03:00:23.659Z,0.90
2019-03-04T03:02:52.955Z,1.10
2019-03-04T03:05:22.802Z,1.20
2019-03-04T03:07:52.115Z,1.20
2019-03-04T03:10:21.360Z,0.90
2019-03-04T03:12:50.660Z,1.10
2019-03-04T03:15:21.346Z,1.20
2019-03-04T03:17:50.621Z,1.00
2019-03-04T03:20:19.901Z,1.33
2019-03-04T03:22:49.164Z,1.13
2019-03-04T03:25:18.415Z,1.60
2019-03-04T03:27:47.720Z,1.50
2019-03-04T03:30:17.123Z,1.37
2019-03-04T03:32:46.444Z,1.47
2019-03-04T03:35:15.714Z,1.40
2019-03-04T03:37:45.003Z,1.00
2019-03-04T03:40:14.379Z,1.20
2019-03-04T03:42:43.672Z,1.23
2019-03-04T03:45:13.337Z,1.10
2019-03-04T03:47:42.631Z,1.20
2019-03-04T03:50:12.139Z,1.63
2019-03-04T03:52:41.421Z,1.57
2019-03-04T03:55:10.942Z,1.67
2019-03-04T03:57:40.360Z,1.53
2019-03-04T04:00:13.318Z,1.83
2019-03-04T04:02:42.619Z,1.80
2019-03-04T04:05:12.035Z,1.30
2019-03-04T04:07:41.388Z,1.23
2019-03-04T04:10:11.956Z,1.20
2019-03-04T04:12:41.366Z,0.87
2019-03-04T04:15:10.792Z,1.30
2019-03-04T04:17:40.203Z,1.20
2019-03-04T04:20:09.824Z,1.20
2019-03-04T04:22:39.086Z,1.33
2019-03-04T04:25:08.407Z,1.20
2019-03-04T04:27:37.738Z,1.40
2019-03-04T04:30:08.032Z,1.40
2019-03-04T04:32:37.373Z,0.90
2019-03-04T04:35:06.855Z,1.30
2019-03-04T04:37:36.175Z,1.30
2019-03-04T04:40:05.816Z,0.90
2019-03-04T04:42:35.128Z,1.40
2019-03-04T04:45:04.397Z,1.20
2019-03-04T04:47:33.668Z,1.23
2019-03-04T04:50:02.924Z,1.10
2019-03-04T04:52:32.226Z,1.40
2019-03-04T04:55:01.503Z,1.00
2019-03-04T04:57:30.839Z,1.20
2019-03-04T05:00:00.282Z,1.20
2019-03-04T05:02:29.639Z,1.27
2019-03-04T05:05:05.524Z,1.40
2019-03-04T05:07:34.850Z,1.40
2019-03-04T05:10:04.683Z,1.30
2019-03-04T05:12:33.949Z,1.90
2019-03-04T05:15:03.675Z,1.40
2019-03-04T05:17:32.926Z,1.10
2019-03-04T05:20:04.117Z,1.23
2019-03-04T05:22:33.503Z,1.30
2019-03-04T05:25:02.787Z,1.30
2019-03-04T05:27:32.074Z,1.10
2019-03-04T05:30:01.433Z,1.20
2019-03-04T05:32:31.368Z,1.10
2019-03-04T05:35:00.688Z,0.90
2019-03-04T05:37:30.005Z,1.27
2019-03-04T05:40:18.814Z,1.20
2019-03-04T05:42:48.112Z,1.37
2019-03-04T05:45:17.458Z,1.40
2019-03-04T05:47:46.771Z,0.93
2019-03-04T05:50:16.580Z,2.40
2019-03-04T05:52:45.852Z,1.07
2019-03-04T05:55:15.432Z,1.20
2019-03-04T05:57:44.719Z,1.37
2019-03-04T06:00:16.370Z,1.00
2019-03-04T06:02:45.815Z,1.40
2019-03-04T06:05:34.159Z,1.00
2019-03-04T06:08:04.869Z,1.30
2019-03-04T06:10:34.142Z,1.30
2019-03-04T06:13:03.432Z,2.20
2019-03-04T06:15:32.787Z,1.70
2019-03-04T06:18:02.435Z,1.10
2019-03-04T06:20:31.701Z,1.20
2019-03-04T06:23:00.949Z,1.00
2019-03-04T06:25:30.262Z,1.20
2019-03-04T06:27:59.608Z,0.93
2019-03-04T06:30:28.869Z,1.47
2019-03-04T06:32:58.631Z,1.10
2019-03-04T06:35:27.905Z,1.67
2019-03-04T06:37:57.215Z,1.20
2019-03-04T06:40:26.487Z,1.23
2019-03-04T06:42:55.774Z,1.30
2019-03-04T06:45:25.118Z,1.87
2019-03-04T06:47:54.457Z,1.30
2019-03-04T06:50:57.916Z,1.27
2019-03-04T06:53:43.170Z,1.40
2019-03-04T06:56:23.389Z,1.10
2019-03-04T06:58:56.762Z,1.57
2019-03-04T07:01:37.754Z,1.80
2019-03-04T07:04:24.722Z,1.30
2019-03-04T07:06:54.024Z,1.87
2019-03-04T07:09:23.346Z,1.27
2019-03-04T07:11:53.641Z,1.70
2019-03-04T07:14:22.928Z,1.53
2019-03-04T07:16:53.285Z,1.57
2019-03-04T07:19:41.766Z,1.43
2019-03-04T07:22:11.390Z,1.70
2019-03-04T07:24:40.690Z,1.70
2019-03-04T07:27:10.267Z,1.80
2019-03-04T07:29:39.534Z,1.63
2019-03-04T07:32:09.058Z,1.83
2019-03-04T07:34:38.313Z,1.60
2019-03-04T07:37:07.620Z,1.40
2019-03-04T07:39:36.954Z,1.50
2019-03-04T07:42:06.329Z,1.80
2019-03-04T07:44:35.647Z,1.60
2019-03-04T07:47:04.937Z,1.70
2019-03-04T07:49:34.238Z,1.93
2019-03-04T07:52:03.650Z,1.80
2019-03-04T07:54:32.974Z,1.70
2019-03-04T07:57:02.278Z,1.67
2019-03-04T07:59:31.628Z,2.10
2019-03-04T08:02:01.013Z,1.90
2019-03-04T08:04:32.637Z,1.93
2019-03-04T08:07:35.944Z,1.67
2019-03-04T08:10:26.121Z,1.97
2019-03-04T08:12:59.503Z,1.63
2019-03-04T08:15:32.790Z,2.20
2019-03-04T08:18:02.093Z,1.50
2019-03-04T08:20:31.522Z,1.30
2019-03-04T08:23:00.811Z,1.07
2019-03-04T08:25:30.074Z,0.90
2019-03-04T08:27:59.672Z,1.23
2019-03-04T08:30:28.939Z,0.80
2019-03-04T08:32:58.257Z,0.80
2019-03-04T08:35:27.600Z,0.83
2019-03-04T08:37:56.898Z,0.80
2019-03-04T08:40:26.343Z,0.70
2019-03-04T08:42:55.625Z,0.80
2019-03-04T08:45:24.927Z,0.80
2019-03-04T08:47:54.211Z,0.80
2019-03-04T08:50:23.519Z,0.60
2019-03-04T08:52:52.768Z,0.60
2019-03-04T08:55:22.104Z,0.87
2019-03-04T08:57:51.459Z,0.70
2019-03-04T09:00:23.224Z,0.70
2019-03-04T09:02:52.668Z,0.57
2019-03-04T09:05:21.996Z,0.50
2019-03-04T09:07:51.316Z,0.70
2019-03-04T09:10:22.579Z,0.60
2019-03-04T09:12:52.196Z,0.83
2019-03-04T09:15:21.475Z,0.60
2019-03-04T09:17:50.776Z,0.60
2019-03-04T09:20:20.442Z,0.80
2019-03-04T09:22:49.746Z,0.60
2019-03-04T09:25:30.479Z,0.60
2019-03-04T09:27:56.404Z,0.60
2019-03-04T09:30:25.760Z,1.00
2019-03-04T09:32:55.064Z,0.60
2019-03-04T09:35:24.404Z,0.60
2019-03-04T09:37:53.660Z,0.70
2019-03-04T09:40:23.159Z,0.60
2019-03-04T09:42:52.467Z,0.70
2019-03-04T09:45:21.751Z,0.90
2019-03-04T09:47:51.069Z,0.60
2019-03-04T09:50:20.371Z,0.60
2019-03-04T09:52:50.356Z,0.90
2019-03-04T09:55:20.152Z,0.70
2019-03-04T09:57:49.426Z,0.77
2019-03-04T10:00:51.646Z,0.90
2019-03-04T10:04:10.229Z,0.80
2019-03-04T10:07:19.693Z,0.80
2019-03-04T10:10:48.127Z,0.73
2019-03-04T10:14:10.887Z,0.70
2019-03-04T10:17:08.995Z,1.07
2019-03-04T10:20:21.106Z,1.03
2019-03-04T10:23:25.892Z,1.23
2019-03-04T10:26:22.337Z,0.97
2019-03-04T10:29:25.754Z,0.80
2019-03-04T10:32:45.417Z,0.63
2019-03-04T10:35:50.024Z,0.80
2019-03-04T10:38:49.813Z,0.93
2019-03-04T10:42:06.304Z,0.70
2019-03-04T10:45:00.030Z,0.80
2019-03-04T10:47:29.349Z,1.30
2019-03-04T10:49:58.718Z,1.00
2019-03-04T10:52:28.062Z,1.10
2019-03-04T10:54:58.797Z,0.60
2019-03-04T10:57:28.099Z,0.90
2019-03-04T10:59:57.418Z,1.03
2019-03-04T11:02:26.771Z,1.07
2019-03-04T11:04:56.165Z,0.90
2019-03-04T11:07:25.568Z,0.93
2019-03-04T11:09:54.848Z,0.80
2019-03-04T11:12:24.136Z,0.70
2019-03-04T11:14:53.423Z,1.30
2019-03-04T11:17:22.754Z,0.73
2019-03-04T11:19:52.046Z,1.03
2019-03-04T11:22:24.931Z,1.40
2019-03-04T11:24:54.219Z,1.07
2019-03-04T11:27:23.803Z,1.17
2019-03-04T11:29:53.093Z,1.00
2019-03-04T11:32:22.389Z,1.40
2019-03-04T11:34:51.659Z,1.00
2019-03-04T11:37:21.011Z,1.20
2019-03-04T11:39:59.673Z,1.00
2019-03-04T11:42:28.995Z,0.90
2019-03-04T11:44:58.276Z,1.20
2019-03-04T11:47:27.717Z,1.07
2019-03-04T11:49:57.103Z,1.20
2019-03-04T11:52:26.438Z,1.57
2019-03-04T11:54:55.781Z,1.57
2019-03-04T11:57:25.127Z,0.90
2019-03-04T11:59:54.447Z,0.90
2019-03-04T12:02:25.833Z,1.60
2019-03-04T12:04:55.095Z,1.60
2019-03-04T12:07:24.464Z,1.00
2019-03-04T12:09:53.808Z,0.97
2019-03-04T12:12:23.235Z,1.07
2019-03-04T12:14:52.567Z,1.50
2019-03-04T12:17:21.927Z,1.00
2019-03-04T12:19:51.262Z,1.40
2019-03-04T12:22:23.251Z,1.03
2019-03-04T12:24:52.707Z,1.20
2019-03-04T12:27:22.063Z,1.00
2019-03-04T12:29:51.470Z,1.00
2019-03-04T12:32:30.671Z,1.20
2019-03-04T12:35:00.025Z,1.93
2019-03-04T12:37:29.329Z,1.60
2019-03-04T12:39:58.624Z,1.00
2019-03-04T12:42:27.967Z,1.10
2019-03-04T12:44:57.264Z,1.03
2019-03-04T12:47:26.563Z,1.23
2019-03-04T12:49:57.463Z,1.63
2019-03-04T12:52:27.027Z,1.30
2019-03-04T12:54:56.430Z,1.17
2019-03-04T12:57:25.755Z,1.20
2019-03-04T12:59:55.102Z,1.17
2019-03-04T13:02:24.428Z,1.30
2019-03-04T13:04:53.813Z,1.60
2019-03-04T13:07:23.139Z,1.50
2019-03-04T13:09:52.495Z,1.17
2019-03-04T13:12:21.819Z,1.27
2019-03-04T13:14:51.944Z,1.50
2019-03-04T13:17:21.275Z,1.60
2019-03-04T13:19:50.582Z,1.40
2019-03-04T13:22:19.944Z,1.03
2019-03-04T13:24:49.227Z,1.30
2019-03-04T13:27:23.676Z,1.37
2019-03-04T13:29:49.714Z,1.20
2019-03-04T13:32:19.022Z,1.60
2019-03-04T13:34:48.400Z,1.67
2019-03-04T13:37:17.728Z,1.60
2019-03-04T13:39:47.040Z,1.10
2019-03-04T13:42:16.376Z,1.20
2019-03-04T13:44:45.750Z,1.40
2019-03-04T13:47:15.077Z,1.20
2019-03-04T13:49:44.365Z,1.10
2019-03-04T13:52:13.772Z,1.50
2019-03-04T13:54:43.104Z,0.97
2019-03-04T13:57:12.494Z,1.13
2019-03-04T13:59:41.785Z,2.13
2019-03-04T14:02:11.268Z,0.80
2019-03-04T14:04:40.864Z,1.47
2019-03-04T14:07:10.377Z,1.20
2019-03-04T14:09:39.655Z,0.90
2019-03-04T14:12:09.902Z,1.10
2019-03-04T14:14:40.658Z,0.80
2019-03-04T14:17:09.973Z,1.17
2019-03-04T14:19:39.335Z,1.00
2019-03-04T14:22:08.678Z,1.20
2019-03-04T14:24:38.034Z,1.23
2019-03-04T14:27:07.337Z,1.60
2019-03-04T14:29:37.916Z,1.00
2019-03-04T14:32:07.242Z,1.40
2019-03-04T14:34:36.592Z,1.17
2019-03-04T14:37:05.887Z,1.00
2019-03-04T14:39:35.202Z,1.20
2019-03-04T14:42:04.502Z,1.30
2019-03-04T14:44:33.789Z,0.90
2019-03-04T14:47:03.126Z,1.53
2019-03-04T14:49:32.416Z,1.27
2019-03-04T14:52:01.709Z,1.23
2019-03-04T14:54:31.007Z,0.83
2019-03-04T14:57:00.329Z,1.03
2019-03-04T14:59:29.590Z,1.00
2019-03-04T15:01:58.948Z,1.17
2019-03-04T15:04:28.235Z,0.60
2019-03-04T15:06:57.543Z,1.00
2019-03-04T15:09:26.945Z,1.00
2019-03-04T15:11:56.561Z,0.80
2019-03-04T15:14:26.049Z,0.97
2019-03-04T15:17:02.945Z,0.80
2019-03-04T15:19:27.154Z,0.60
2019-03-04T15:21:56.478Z,0.53
2019-03-04T15:24:25.860Z,0.80
2019-03-04T15:26:55.279Z,0.73
2019-03-04T15:29:24.648Z,1.43
2019-03-04T15:31:53.950Z,1.80
2019-03-04T15:34:23.523Z,0.77
2019-03-04T15:36:52.861Z,0.67
2019-03-04T15:39:23.280Z,0.80
2019-03-04T15:41:52.872Z,0.60
2019-03-04T15:44:22.287Z,0.60
2019-03-04T15:46:51.578Z,0.70
2019-03-04T15:49:20.933Z,0.53
2019-03-04T15:51:50.278Z,0.50
2019-03-04T15:54:19.643Z,0.57
2019-03-04T15:56:48.965Z,0.80
2019-03-04T15:59:18.282Z,0.70
2019-03-04T16:01:47.541Z,0.70
2019-03-04T16:04:16.866Z,0.63
2019-03-04T16:06:46.171Z,0.63
2019-03-04T16:09:18.470Z,0.70
2019-03-04T16:11:47.735Z,0.70
2019-03-04T16:14:17.097Z,0.70
2019-03-04T16:16:46.382Z,0.67
2019-03-04T16:19:15.657Z,0.50
2019-03-04T16:21:45.207Z,0.80
2019-03-04T16:24:14.626Z,0.50
2019-03-04T16:26:43.986Z,0.47
2019-03-04T16:29:13.274Z,0.60
2019-03-04T16:31:42.906Z,1.00
2019-03-04T16:34:12.400Z,0.60
2019-03-04T16:36:41.741Z,0.50
2019-03-04T16:39:13.182Z,0.50
2019-03-04T16:41:42.758Z,0.50
2019-03-04T16:44:12.261Z,0.67
2019-03-04T16:46:41.559Z,0.50
2019-03-04T16:49:11.390Z,0.50
2019-03-04T16:51:40.707Z,1.17
2019-03-04T16:54:10.026Z,0.60
2019-03-04T16:56:39.331Z,0.93
2019-03-04T16:59:08.794Z,0.50
2019-03-04T17:01:38.130Z,0.50
2019-03-04T17:04:08.825Z,0.47
2019-03-04T17:06:38.527Z,0.47
2019-03-04T17:09:17.286Z,0.70
2019-03-04T17:11:46.916Z,0.40
2019-03-04T17:14:16.527Z,0.60
2019-03-04T17:16:46.182Z,0.40
2019-03-04T17:19:15.834Z,0.53
2019-03-04T17:21:45.210Z,0.40
2019-03-04T17:24:14.514Z,0.40
2019-03-04T17:26:43.823Z,0.47
2019-03-04T17:29:13.139Z,0.47
2019-03-04T17:31:42.456Z,0.47
2019-03-04T17:34:11.762Z,0.50
2019-03-04T17:36:41.071Z,0.60
2019-03-04T17:39:10.550Z,0.40
2019-03-04T17:41:39.888Z,0.60
2019-03-04T17:44:09.308Z,0.47
2019-03-04T17:46:38.568Z,0.50
2019-03-04T17:49:07.940Z,0.70
2019-03-04T17:51:37.244Z,0.50
2019-03-04T17:54:06.875Z,0.50
2019-03-04T17:56:36.985Z,0.60
2019-03-04T17:59:06.562Z,0.50
2019-03-04T18:01:35.931Z,0.70
2019-03-04T18:04:05.324Z,0.60
2019-03-04T18:06:34.673Z,0.60
2019-03-04T18:09:05.536Z,0.63
2019-03-04T18:11:35.167Z,0.60
2019-03-04T18:14:05.589Z,0.87
2019-03-04T18:16:35.314Z,0.50
2019-03-04T18:19:05.465Z,0.60
2019-03-04T18:21:35.662Z,0.60
2019-03-04T18:24:05.414Z,0.73
2019-03-04T18:27:04.355Z,0.87
2019-03-04T18:30:08.298Z,0.60
2019-03-04T18:33:18.563Z,0.70
2019-03-04T18:36:13.648Z,0.70
2019-03-04T18:39:01.136Z,0.63
2019-03-04T18:42:03.342Z,0.80
2019-03-04T18:45:31.771Z,0.70
2019-03-04T18:48:35.391Z,0.90
2019-03-04T18:51:05.576Z,1.07
2019-03-04T18:53:34.908Z,1.00
2019-03-04T18:56:04.247Z,1.10
2019-03-04T18:58:33.538Z,0.87
2019-03-04T19:01:02.895Z,0.93
2019-03-04T19:03:32.233Z,0.97
2019-03-04T19:06:01.634Z,0.87
2019-03-04T19:08:30.995Z,1.00
2019-03-04T19:11:00.333Z,1.17
2019-03-04T19:13:29.704Z,1.23
2019-03-04T19:15:59.098Z,1.00
2019-03-04T19:18:28.394Z,1.03
2019-03-04T19:20:57.680Z,1.40
2019-03-04T19:23:26.992Z,1.17
2019-03-04T19:25:56.387Z,1.10
2019-03-04T19:28:25.782Z,1.33
2019-03-04T19:30:55.144Z,1.43
2019-03-04T19:33:24.580Z,1.17
2019-03-04T19:35:53.936Z,1.67
2019-03-04T19:38:23.249Z,1.70
2019-03-04T19:40:52.591Z,2.00
2019-03-04T19:43:21.919Z,1.50
2019-03-04T19:45:51.192Z,1.63
2019-03-04T19:48:20.479Z,1.27
2019-03-04T19:50:49.797Z,1.70
2019-03-04T19:53:19.168Z,1.27
2019-03-04T19:55:48.661Z,1.57
2019-03-04T19:58:18.039Z,2.20
2019-03-04T20:00:47.467Z,1.70
2019-03-04T20:03:16.838Z,2.30
2019-03-04T20:05:46.373Z,1.37
2019-03-04T20:08:16.988Z,1.77
2019-03-04T20:10:46.592Z,1.37
2019-03-04T20:13:16.086Z,1.30
2019-03-04T20:15:45.765Z,1.53
2019-03-04T20:18:15.124Z,1.00
2019-03-04T20:20:44.679Z,1.07
2019-03-04T20:23:14.070Z,0.93
2019-03-04T20:25:43.437Z,0.90
2019-03-04T20:28:14.652Z,1.30
2019-03-04T20:30:44.037Z,1.47
2019-03-04T20:33:13.377Z,1.17
2019-03-04T20:35:42.793Z,1.20
2019-03-04T20:38:14.509Z,1.00
2019-03-04T20:40:43.846Z,0.93
2019-03-04T20:43:13.210Z,0.70
2019-03-04T20:45:42.577Z,0.80
2019-03-04T20:48:11.980Z,0.53
2019-03-04T20:50:41.298Z,0.50
2019-03-04T20:53:10.855Z,0.60
2019-03-04T20:55:40.133Z,0.60
2019-03-04T20:58:09.515Z,0.90
2019-03-04T21:00:39.271Z,1.03
2019-03-04T21:03:08.663Z,0.80
2019-03-04T21:05:38.069Z,0.80
2019-03-04T21:08:07.653Z,0.70
2019-03-04T21:10:37.015Z,1.10
2019-03-04T21:13:16.122Z,0.73
2019-03-04T21:15:45.633Z,1.00
2019-03-04T21:18:15.090Z,1.00
2019-03-04T21:20:44.490Z,0.90
2019-03-04T21:23:14.189Z,0.90
2019-03-04T21:25:53.049Z,1.10
2019-03-04T21:28:36.021Z,0.83
2019-03-04T21:31:41.949Z,0.80
2019-03-04T21:34:43.501Z,1.00
2019-03-04T21:37:39.382Z,1.00
2019-03-04T21:40:13.395Z,1.30
2019-03-04T21:42:59.341Z,1.17
2019-03-04T21:46:06.096Z,0.80
2019-03-04T21:48:40.987Z,1.20
2019-03-04T21:51:24.147Z,0.80
2019-03-04T21:53:53.562Z,0.90
2019-03-04T21:57:08.705Z,1.20
2019-03-04T21:59:38.059Z,0.93
2019-03-04T22:02:23.692Z,1.13
2019-03-04T22:04:53.145Z,0.93
2019-03-04T22:07:22.447Z,0.70
2019-03-04T22:09:51.817Z,1.00
2019-03-04T22:12:21.458Z,1.10
2019-03-04T22:14:50.903Z,0.93
2019-03-04T22:17:20.330Z,0.80
2019-03-04T22:19:49.664Z,1.03
2019-03-04T22:22:19.042Z,0.97
2019-03-04T22:24:51.163Z,0.80
2019-03-04T22:27:20.510Z,0.80
2019-03-04T22:29:49.823Z,0.87
2019-03-04T22:32:19.193Z,0.87
2019-03-04T22:34:48.583Z,0.80
2019-03-04T22:37:17.990Z,1.03
2019-03-04T22:39:47.334Z,0.90
2019-03-04T22:42:16.657Z,1.30
2019-03-04T22:44:46.003Z,0.90
2019-03-04T22:47:15.354Z,0.73
2019-03-04T22:49:44.622Z,1.00
2019-03-04T22:52:13.919Z,0.87
2019-03-04T22:54:43.320Z,0.87
2019-03-04T22:57:12.668Z,0.70
2019-03-04T22:59:42.055Z,0.60
2019-03-04T23:02:11.449Z,0.70
2019-03-04T23:04:58.381Z,0.70
2019-03-04T23:07:36.494Z,0.70
2019-03-04T23:10:35.519Z,0.70
2019-03-04T23:13:44.807Z,0.90
2019-03-04T23:16:17.192Z,0.70
2019-03-04T23:18:46.493Z,0.80
2019-03-04T23:21:15.783Z,0.70
2019-03-04T23:23:45.144Z,0.70
2019-03-04T23:26:14.537Z,0.80
2019-03-04T23:28:43.882Z,0.80
2019-03-04T23:31:13.143Z,0.60
2019-03-04T23:33:42.485Z,0.70
2019-03-04T23:36:11.876Z,0.90
2019-03-04T23:38:41.140Z,1.67
2019-03-04T23:41:10.599Z,0.80
2019-03-04T23:43:39.887Z,0.80
2019-03-04T23:46:09.238Z,1.13
2019-03-04T23:48:38.523Z,1.20
2019-03-04T23:51:07.819Z,1.13
2019-03-04T23:53:37.163Z,0.80
2019-03-04T23:56:06.438Z,0.70
2019-03-04T23:58:35.728Z,1.07
